sensor_id;sensor_type;location;lat;lon;timestamp;P1;durP1;ratioP1;P2;durP2;ratioP2
68921;SDS011;55959;51.244;5.724;2023-04-24T00:00:16;7.37;;;5.13;;
68921;SDS011;55959;51.244;5.724;2023-04-24T00:02:43;5.83;;;5.23;;
68921;SDS011;55959;51.244;5.724;2023-04-24T00:05:13;5.63;;;5.13;;
68921;SDS011;55959;51.244;5.724;2023-04-24T00:07:40;7.37;;;5.20;;
68921;SDS011;55959;51.244;5.724;2023-04-24T00:10:07;6.40;;;4.87;;
68921;SDS011;55959;51.244;5.724;2023-04-24T00:12:34;6.57;;;4.90;;
68921;SDS011;55959;51.244;5.724;2023-04-24T00:14:59;6.57;;;5.10;;
68921;SDS011;55959;51.244;5.724;2023-04-24T00:17:26;5.93;;;5.30;;
68921;SDS011;55959;51.244;5.724;2023-04-24T00:19:51;6.63;;;5.50;;
68921;SDS011;55959;51.244;5.724;2023-04-24T00:22:23;7.10;;;5.27;;
68921;SDS011;55959;51.244;5.724;2023-04-24T00:24:50;6.83;;;6.07;;
68921;SDS011;55959;51.244;5.724;2023-04-24T00:27:16;8.60;;;5.63;;
68921;SDS011;55959;51.244;5.724;2023-04-24T00:29:42;8.63;;;5.40;;
68921;SDS011;55959;51.244;5.724;2023-04-24T00:32:07;8.63;;;5.90;;
68921;SDS011;55959;51.244;5.724;2023-04-24T00:34:33;8.27;;;6.07;;
68921;SDS011;55959;51.244;5.724;2023-04-24T00:36:59;9.77;;;6.50;;
68921;SDS011;55959;51.244;5.724;2023-04-24T00:39:25;7.33;;;6.63;;
68921;SDS011;55959;51.244;5.724;2023-04-24T00:41:51;7.43;;;6.30;;
68921;SDS011;55959;51.244;5.724;2023-04-24T00:44:17;8.70;;;6.20;;
68921;SDS011;55959;51.244;5.724;2023-04-24T00:46:43;12.57;;;7.20;;
68921;SDS011;55959;51.244;5.724;2023-04-24T00:49:09;7.50;;;6.73;;
68921;SDS011;55959;51.244;5.724;2023-04-24T00:51:35;9.93;;;6.87;;
68921;SDS011;55959;51.244;5.724;2023-04-24T00:54:01;10.17;;;6.77;;
68921;SDS011;55959;51.244;5.724;2023-04-24T00:56:27;8.17;;;6.80;;
68921;SDS011;55959;51.244;5.724;2023-04-24T00:58:55;9.37;;;7.60;;
68921;SDS011;55959;51.244;5.724;2023-04-24T01:01:21;8.63;;;6.60;;
68921;SDS011;55959;51.244;5.724;2023-04-24T01:03:48;8.77;;;7.60;;
68921;SDS011;55959;51.244;5.724;2023-04-24T01:06:16;7.60;;;6.90;;
68921;SDS011;55959;51.244;5.724;2023-04-24T01:08:45;12.03;;;8.67;;
68921;SDS011;55959;51.244;5.724;2023-04-24T01:11:12;11.47;;;8.63;;
68921;SDS011;55959;51.244;5.724;2023-04-24T01:13:39;11.40;;;8.13;;
68921;SDS011;55959;51.244;5.724;2023-04-24T01:16:05;10.97;;;8.43;;
68921;SDS011;55959;51.244;5.724;2023-04-24T01:18:31;12.97;;;9.10;;
68921;SDS011;55959;51.244;5.724;2023-04-24T01:20:58;12.43;;;9.00;;
68921;SDS011;55959;51.244;5.724;2023-04-24T01:23:25;11.73;;;9.30;;
68921;SDS011;55959;51.244;5.724;2023-04-24T01:25:51;11.17;;;9.43;;
68921;SDS011;55959;51.244;5.724;2023-04-24T01:28:17;11.27;;;9.93;;
68921;SDS011;55959;51.244;5.724;2023-04-24T01:30:44;12.03;;;9.70;;
68921;SDS011;55959;51.244;5.724;2023-04-24T01:33:10;12.40;;;9.40;;
68921;SDS011;55959;51.244;5.724;2023-04-24T01:35:36;10.50;;;9.40;;
68921;SDS011;55959;51.244;5.724;2023-04-24T01:38:03;13.03;;;10.20;;
68921;SDS011;55959;51.244;5.724;2023-04-24T01:40:30;12.93;;;10.37;;
68921;SDS011;55959;51.244;5.724;2023-04-24T01:42:57;13.63;;;9.67;;
68921;SDS011;55959;51.244;5.724;2023-04-24T01:45:23;11.30;;;9.70;;
68921;SDS011;55959;51.244;5.724;2023-04-24T01:47:49;15.23;;;11.43;;
68921;SDS011;55959;51.244;5.724;2023-04-24T01:50:15;11.40;;;9.73;;
68921;SDS011;55959;51.244;5.724;2023-04-24T01:52:42;12.43;;;10.30;;
68921;SDS011;55959;51.244;5.724;2023-04-24T01:55:08;12.03;;;10.43;;
68921;SDS011;55959;51.244;5.724;2023-04-24T01:57:34;12.07;;;10.77;;
68921;SDS011;55959;51.244;5.724;2023-04-24T02:00:00;10.43;;;9.43;;
68921;SDS011;55959;51.244;5.724;2023-04-24T02:02:29;11.70;;;10.37;;
68921;SDS011;55959;51.244;5.724;2023-04-24T02:04:55;14.03;;;10.27;;
68921;SDS011;55959;51.244;5.724;2023-04-24T02:07:22;13.47;;;10.73;;
68921;SDS011;55959;51.244;5.724;2023-04-24T02:09:48;13.83;;;10.77;;
68921;SDS011;55959;51.244;5.724;2023-04-24T02:12:14;12.73;;;10.97;;
68921;SDS011;55959;51.244;5.724;2023-04-24T02:14:42;14.27;;;10.67;;
68921;SDS011;55959;51.244;5.724;2023-04-24T02:17:08;15.20;;;11.37;;
68921;SDS011;55959;51.244;5.724;2023-04-24T02:19:34;14.23;;;12.20;;
68921;SDS011;55959;51.244;5.724;2023-04-24T02:22:00;14.47;;;11.60;;
68921;SDS011;55959;51.244;5.724;2023-04-24T02:24:26;11.90;;;10.03;;
68921;SDS011;55959;51.244;5.724;2023-04-24T02:26:52;13.40;;;11.43;;
68921;SDS011;55959;51.244;5.724;2023-04-24T02:29:17;12.40;;;11.03;;
68921;SDS011;55959;51.244;5.724;2023-04-24T02:31:43;12.73;;;10.77;;
68921;SDS011;55959;51.244;5.724;2023-04-24T02:34:09;12.67;;;11.20;;
68921;SDS011;55959;51.244;5.724;2023-04-24T02:36:35;12.73;;;11.40;;
68921;SDS011;55959;51.244;5.724;2023-04-24T02:39:01;11.70;;;10.07;;
68921;SDS011;55959;51.244;5.724;2023-04-24T02:41:26;12.07;;;10.07;;
68921;SDS011;55959;51.244;5.724;2023-04-24T02:43:56;10.50;;;9.40;;
68921;SDS011;55959;51.244;5.724;2023-04-24T02:46:23;11.27;;;10.07;;
68921;SDS011;55959;51.244;5.724;2023-04-24T02:48:49;12.17;;;10.20;;
68921;SDS011;55959;51.244;5.724;2023-04-24T02:51:15;12.30;;;9.47;;
68921;SDS011;55959;51.244;5.724;2023-04-24T02:53:40;10.90;;;9.80;;
68921;SDS011;55959;51.244;5.724;2023-04-24T02:56:06;10.70;;;9.60;;
68921;SDS011;55959;51.244;5.724;2023-04-24T02:58:32;11.37;;;9.63;;
68921;SDS011;55959;51.244;5.724;2023-04-24T03:00:58;13.97;;;10.00;;
68921;SDS011;55959;51.244;5.724;2023-04-24T03:03:23;12.53;;;9.07;;
68921;SDS011;55959;51.244;5.724;2023-04-24T03:05:50;12.57;;;9.60;;
68921;SDS011;55959;51.244;5.724;2023-04-24T03:08:15;9.73;;;8.80;;
68921;SDS011;55959;51.244;5.724;2023-04-24T03:10:41;11.70;;;9.43;;
68921;SDS011;55959;51.244;5.724;2023-04-24T03:13:07;12.43;;;9.93;;
68921;SDS011;55959;51.244;5.724;2023-04-24T03:15:33;12.00;;;10.77;;
68921;SDS011;55959;51.244;5.724;2023-04-24T03:17:59;12.97;;;9.63;;
68921;SDS011;55959;51.244;5.724;2023-04-24T03:20:25;12.40;;;10.20;;
68921;SDS011;55959;51.244;5.724;2023-04-24T03:22:51;10.73;;;8.80;;
68921;SDS011;55959;51.244;5.724;2023-04-24T03:25:17;11.17;;;8.87;;
68921;SDS011;55959;51.244;5.724;2023-04-24T03:27:43;12.87;;;9.53;;
68921;SDS011;55959;51.244;5.724;2023-04-24T03:30:08;9.57;;;8.57;;
68921;SDS011;55959;51.244;5.724;2023-04-24T03:32:35;10.67;;;9.30;;
68921;SDS011;55959;51.244;5.724;2023-04-24T03:35:01;9.80;;;8.77;;
68921;SDS011;55959;51.244;5.724;2023-04-24T03:37:27;10.40;;;8.37;;
68921;SDS011;55959;51.244;5.724;2023-04-24T03:39:52;8.60;;;7.70;;
68921;SDS011;55959;51.244;5.724;2023-04-24T03:42:18;9.10;;;7.83;;
68921;SDS011;55959;51.244;5.724;2023-04-24T03:44:44;7.87;;;7.17;;
68921;SDS011;55959;51.244;5.724;2023-04-24T03:47:10;9.87;;;7.60;;
68921;SDS011;55959;51.244;5.724;2023-04-24T03:49:35;8.47;;;7.63;;
68921;SDS011;55959;51.244;5.724;2023-04-24T03:52:01;7.43;;;6.60;;
68921;SDS011;55959;51.244;5.724;2023-04-24T03:54:27;9.20;;;6.63;;
68921;SDS011;55959;51.244;5.724;2023-04-24T03:56:53;7.63;;;7.00;;
68921;SDS011;55959;51.244;5.724;2023-04-24T03:59:19;9.07;;;8.13;;
68921;SDS011;55959;51.244;5.724;2023-04-24T04:01:44;9.00;;;7.37;;
68921;SDS011;55959;51.244;5.724;2023-04-24T04:04:11;9.40;;;7.93;;
68921;SDS011;55959;51.244;5.724;2023-04-24T04:06:37;7.40;;;6.73;;
68921;SDS011;55959;51.244;5.724;2023-04-24T04:09:02;10.57;;;7.57;;
68921;SDS011;55959;51.244;5.724;2023-04-24T04:11:28;9.70;;;8.47;;
68921;SDS011;55959;51.244;5.724;2023-04-24T04:13:55;10.90;;;8.17;;
68921;SDS011;55959;51.244;5.724;2023-04-24T04:16:22;9.63;;;8.47;;
68921;SDS011;55959;51.244;5.724;2023-04-24T04:18:49;7.70;;;7.00;;
68921;SDS011;55959;51.244;5.724;2023-04-24T04:21:15;8.80;;;7.90;;
68921;SDS011;55959;51.244;5.724;2023-04-24T04:23:40;8.93;;;7.43;;
68921;SDS011;55959;51.244;5.724;2023-04-24T04:26:06;9.20;;;7.83;;
68921;SDS011;55959;51.244;5.724;2023-04-24T04:28:33;9.43;;;8.37;;
68921;SDS011;55959;51.244;5.724;2023-04-24T04:30:59;8.80;;;8.00;;
68921;SDS011;55959;51.244;5.724;2023-04-24T04:33:25;9.70;;;8.10;;
68921;SDS011;55959;51.244;5.724;2023-04-24T04:35:51;10.03;;;7.80;;
68921;SDS011;55959;51.244;5.724;2023-04-24T04:38:18;9.67;;;8.67;;
68921;SDS011;55959;51.244;5.724;2023-04-24T04:40:44;9.60;;;8.70;;
68921;SDS011;55959;51.244;5.724;2023-04-24T04:43:11;9.47;;;8.27;;
68921;SDS011;55959;51.244;5.724;2023-04-24T04:45:41;10.80;;;9.40;;
68921;SDS011;55959;51.244;5.724;2023-04-24T04:48:09;8.63;;;7.83;;
68921;SDS011;55959;51.244;5.724;2023-04-24T04:50:37;10.23;;;8.37;;
68921;SDS011;55959;51.244;5.724;2023-04-24T04:53:03;9.37;;;8.43;;
68921;SDS011;55959;51.244;5.724;2023-04-24T04:55:30;9.60;;;8.60;;
68921;SDS011;55959;51.244;5.724;2023-04-24T04:57:55;9.30;;;8.30;;
68921;SDS011;55959;51.244;5.724;2023-04-24T05:00:23;9.23;;;8.30;;
68921;SDS011;55959;51.244;5.724;2023-04-24T05:02:50;11.93;;;8.50;;
68921;SDS011;55959;51.244;5.724;2023-04-24T05:05:16;9.13;;;8.33;;
68921;SDS011;55959;51.244;5.724;2023-04-24T05:07:42;8.20;;;7.50;;
68921;SDS011;55959;51.244;5.724;2023-04-24T05:10:09;9.63;;;8.50;;
68921;SDS011;55959;51.244;5.724;2023-04-24T05:12:35;9.40;;;8.00;;
68921;SDS011;55959;51.244;5.724;2023-04-24T05:15:02;8.57;;;7.63;;
68921;SDS011;55959;51.244;5.724;2023-04-24T05:17:28;8.00;;;7.17;;
68921;SDS011;55959;51.244;5.724;2023-04-24T05:19:54;7.40;;;6.53;;
68921;SDS011;55959;51.244;5.724;2023-04-24T05:22:20;7.50;;;5.93;;
68921;SDS011;55959;51.244;5.724;2023-04-24T05:24:46;6.93;;;6.23;;
68921;SDS011;55959;51.244;5.724;2023-04-24T05:27:12;7.60;;;6.83;;
68921;SDS011;55959;51.244;5.724;2023-04-24T05:29:38;6.63;;;6.00;;
68921;SDS011;55959;51.244;5.724;2023-04-24T05:32:05;7.00;;;5.87;;
68921;SDS011;55959;51.244;5.724;2023-04-24T05:34:31;7.13;;;6.43;;
68921;SDS011;55959;51.244;5.724;2023-04-24T05:36:57;6.17;;;5.57;;
68921;SDS011;55959;51.244;5.724;2023-04-24T05:39:23;5.33;;;4.83;;
68921;SDS011;55959;51.244;5.724;2023-04-24T05:41:50;5.00;;;4.47;;
68921;SDS011;55959;51.244;5.724;2023-04-24T05:44:16;5.20;;;4.00;;
68921;SDS011;55959;51.244;5.724;2023-04-24T05:46:42;3.90;;;3.50;;
68921;SDS011;55959;51.244;5.724;2023-04-24T05:49:08;3.20;;;2.90;;
68921;SDS011;55959;51.244;5.724;2023-04-24T05:51:34;3.30;;;3.10;;
68921;SDS011;55959;51.244;5.724;2023-04-24T05:54:00;4.10;;;3.50;;
68921;SDS011;55959;51.244;5.724;2023-04-24T05:56:27;3.10;;;2.80;;
68921;SDS011;55959;51.244;5.724;2023-04-24T05:58:53;2.87;;;2.57;;
68921;SDS011;55959;51.244;5.724;2023-04-24T06:01:19;3.10;;;2.43;;
68921;SDS011;55959;51.244;5.724;2023-04-24T06:03:46;2.20;;;2.00;;
68921;SDS011;55959;51.244;5.724;2023-04-24T06:06:12;2.13;;;1.70;;
68921;SDS011;55959;51.244;5.724;2023-04-24T06:08:38;2.37;;;1.77;;
68921;SDS011;55959;51.244;5.724;2023-04-24T06:11:04;1.37;;;1.27;;
68921;SDS011;55959;51.244;5.724;2023-04-24T06:13:29;1.10;;;1.00;;
68921;SDS011;55959;51.244;5.724;2023-04-24T06:15:55;1.37;;;1.10;;
68921;SDS011;55959;51.244;5.724;2023-04-24T06:18:21;0.70;;;0.70;;
68921;SDS011;55959;51.244;5.724;2023-04-24T06:20:47;1.67;;;0.80;;
68921;SDS011;55959;51.244;5.724;2023-04-24T06:23:12;1.47;;;0.93;;
68921;SDS011;55959;51.244;5.724;2023-04-24T06:25:38;1.07;;;0.70;;
68921;SDS011;55959;51.244;5.724;2023-04-24T06:28:04;1.57;;;0.70;;
68921;SDS011;55959;51.244;5.724;2023-04-24T06:30:30;0.93;;;0.60;;
68921;SDS011;55959;51.244;5.724;2023-04-24T06:32:56;1.27;;;0.87;;
68921;SDS011;55959;51.244;5.724;2023-04-24T06:35:22;0.90;;;0.70;;
68921;SDS011;55959;51.244;5.724;2023-04-24T06:37:48;1.10;;;0.80;;
68921;SDS011;55959;51.244;5.724;2023-04-24T06:40:14;1.23;;;0.80;;
68921;SDS011;55959;51.244;5.724;2023-04-24T06:42:39;1.33;;;1.03;;
68921;SDS011;55959;51.244;5.724;2023-04-24T06:45:05;1.20;;;1.10;;
68921;SDS011;55959;51.244;5.724;2023-04-24T06:47:32;2.53;;;1.30;;
68921;SDS011;55959;51.244;5.724;2023-04-24T06:49:57;1.00;;;0.93;;
68921;SDS011;55959;51.244;5.724;2023-04-24T06:52:24;1.63;;;1.20;;
68921;SDS011;55959;51.244;5.724;2023-04-24T06:54:49;1.40;;;1.30;;
68921;SDS011;55959;51.244;5.724;2023-04-24T06:57:15;2.00;;;1.30;;
68921;SDS011;55959;51.244;5.724;2023-04-24T06:59:42;1.90;;;1.40;;
68921;SDS011;55959;51.244;5.724;2023-04-24T07:02:07;3.17;;;2.07;;
68921;SDS011;55959;51.244;5.724;2023-04-24T07:04:33;1.63;;;1.47;;
68921;SDS011;55959;51.244;5.724;2023-04-24T07:07:00;2.70;;;2.07;;
68921;SDS011;55959;51.244;5.724;2023-04-24T07:09:27;2.40;;;2.20;;
68921;SDS011;55959;51.244;5.724;2023-04-24T07:11:53;2.47;;;2.27;;
68921;SDS011;55959;51.244;5.724;2023-04-24T07:14:21;2.53;;;2.33;;
68921;SDS011;55959;51.244;5.724;2023-04-24T07:16:47;3.90;;;3.10;;
68921;SDS011;55959;51.244;5.724;2023-04-24T07:19:13;3.13;;;2.93;;
68921;SDS011;55959;51.244;5.724;2023-04-24T07:21:41;4.03;;;3.27;;
68921;SDS011;55959;51.244;5.724;2023-04-24T07:24:07;3.83;;;3.10;;
68921;SDS011;55959;51.244;5.724;2023-04-24T07:26:35;3.77;;;3.30;;
68921;SDS011;55959;51.244;5.724;2023-04-24T07:29:04;4.83;;;3.90;;
68921;SDS011;55959;51.244;5.724;2023-04-24T07:31:30;4.73;;;3.40;;
68921;SDS011;55959;51.244;5.724;2023-04-24T07:33:55;4.33;;;3.93;;
68921;SDS011;55959;51.244;5.724;2023-04-24T07:36:23;4.83;;;4.33;;
68921;SDS011;55959;51.244;5.724;2023-04-24T07:38:50;5.43;;;4.93;;
68921;SDS011;55959;51.244;5.724;2023-04-24T07:41:19;5.90;;;5.00;;
68921;SDS011;55959;51.244;5.724;2023-04-24T07:43:46;6.13;;;5.23;;
68921;SDS011;55959;51.244;5.724;2023-04-24T07:46:12;5.67;;;4.87;;
68921;SDS011;55959;51.244;5.724;2023-04-24T07:48:37;6.77;;;4.83;;
68921;SDS011;55959;51.244;5.724;2023-04-24T07:51:03;5.57;;;5.03;;
68921;SDS011;55959;51.244;5.724;2023-04-24T07:53:29;6.30;;;5.10;;
68921;SDS011;55959;51.244;5.724;2023-04-24T07:55:55;6.93;;;4.67;;
68921;SDS011;55959;51.244;5.724;2023-04-24T07:58:22;7.47;;;5.20;;
68921;SDS011;55959;51.244;5.724;2023-04-24T08:00:48;4.63;;;4.23;;
68921;SDS011;55959;51.244;5.724;2023-04-24T08:03:14;7.53;;;4.43;;
68921;SDS011;55959;51.244;5.724;2023-04-24T08:05:43;6.67;;;4.67;;
68921;SDS011;55959;51.244;5.724;2023-04-24T08:08:09;7.60;;;4.77;;
68921;SDS011;55959;51.244;5.724;2023-04-24T08:10:34;5.20;;;4.07;;
68921;SDS011;55959;51.244;5.724;2023-04-24T08:13:00;7.60;;;4.97;;
68921;SDS011;55959;51.244;5.724;2023-04-24T08:15:27;5.43;;;4.43;;
68921;SDS011;55959;51.244;5.724;2023-04-24T08:17:53;6.07;;;4.63;;
68921;SDS011;55959;51.244;5.724;2023-04-24T08:20:18;7.80;;;5.17;;
68921;SDS011;55959;51.244;5.724;2023-04-24T08:22:44;9.47;;;5.13;;
68921;SDS011;55959;51.244;5.724;2023-04-24T08:25:12;7.37;;;4.77;;
68921;SDS011;55959;51.244;5.724;2023-04-24T08:27:38;8.20;;;5.43;;
68921;SDS011;55959;51.244;5.724;2023-04-24T08:30:04;6.87;;;4.50;;
68921;SDS011;55959;51.244;5.724;2023-04-24T08:32:31;7.47;;;5.03;;
68921;SDS011;55959;51.244;5.724;2023-04-24T08:34:59;9.10;;;5.37;;
68921;SDS011;55959;51.244;5.724;2023-04-24T08:37:25;10.33;;;5.40;;
68921;SDS011;55959;51.244;5.724;2023-04-24T08:39:52;7.57;;;5.07;;
68921;SDS011;55959;51.244;5.724;2023-04-24T08:42:19;7.00;;;4.70;;
68921;SDS011;55959;51.244;5.724;2023-04-24T08:44:45;12.40;;;5.10;;
68921;SDS011;55959;51.244;5.724;2023-04-24T08:47:13;7.63;;;4.70;;
68921;SDS011;55959;51.244;5.724;2023-04-24T08:49:41;11.57;;;5.27;;
68921;SDS011;55959;51.244;5.724;2023-04-24T08:52:07;7.97;;;4.73;;
68921;SDS011;55959;51.244;5.724;2023-04-24T08:54:34;7.27;;;4.37;;
68921;SDS011;55959;51.244;5.724;2023-04-24T08:57:01;7.23;;;3.90;;
68921;SDS011;55959;51.244;5.724;2023-04-24T08:59:29;7.17;;;4.17;;
68921;SDS011;55959;51.244;5.724;2023-04-24T09:01:56;6.50;;;4.07;;
68921;SDS011;55959;51.244;5.724;2023-04-24T09:04:23;6.93;;;4.03;;
68921;SDS011;55959;51.244;5.724;2023-04-24T09:06:57;7.40;;;3.70;;
68921;SDS011;55959;51.244;5.724;2023-04-24T09:09:24;6.00;;;3.27;;
68921;SDS011;55959;51.244;5.724;2023-04-24T09:11:51;6.53;;;4.17;;
68921;SDS011;55959;51.244;5.724;2023-04-24T09:14:20;5.57;;;3.30;;
68921;SDS011;55959;51.244;5.724;2023-04-24T09:16:47;6.90;;;3.80;;
68921;SDS011;55959;51.244;5.724;2023-04-24T09:19:13;7.20;;;3.50;;
68921;SDS011;55959;51.244;5.724;2023-04-24T09:21:39;8.20;;;3.93;;
68921;SDS011;55959;51.244;5.724;2023-04-24T09:24:07;6.00;;;3.40;;
68921;SDS011;55959;51.244;5.724;2023-04-24T09:26:42;9.57;;;3.80;;
68921;SDS011;55959;51.244;5.724;2023-04-24T09:29:13;8.17;;;4.00;;
68921;SDS011;55959;51.244;5.724;2023-04-24T09:31:43;7.57;;;3.60;;
68921;SDS011;55959;51.244;5.724;2023-04-24T09:34:10;7.50;;;2.90;;
68921;SDS011;55959;51.244;5.724;2023-04-24T09:36:37;6.67;;;3.17;;
68921;SDS011;55959;51.244;5.724;2023-04-24T09:39:08;5.67;;;3.20;;
68921;SDS011;55959;51.244;5.724;2023-04-24T09:41:53;5.27;;;2.97;;
68921;SDS011;55959;51.244;5.724;2023-04-24T09:44:25;7.43;;;3.13;;
68921;SDS011;55959;51.244;5.724;2023-04-24T09:49:23;9.37;;;3.27;;
68921;SDS011;55959;51.244;5.724;2023-04-24T09:52:07;8.53;;;3.03;;
68921;SDS011;55959;51.244;5.724;2023-04-24T09:54:35;8.73;;;3.47;;
68921;SDS011;55959;51.244;5.724;2023-04-24T09:57:01;6.77;;;2.90;;
68921;SDS011;55959;51.244;5.724;2023-04-24T09:59:28;7.00;;;2.50;;
68921;SDS011;55959;51.244;5.724;2023-04-24T10:01:55;8.20;;;3.20;;
68921;SDS011;55959;51.244;5.724;2023-04-24T10:04:24;7.43;;;3.50;;
68921;SDS011;55959;51.244;5.724;2023-04-24T10:06:52;8.53;;;3.40;;
68921;SDS011;55959;51.244;5.724;2023-04-24T10:09:21;10.77;;;3.57;;
68921;SDS011;55959;51.244;5.724;2023-04-24T10:11:50;4.80;;;2.90;;
68921;SDS011;55959;51.244;5.724;2023-04-24T10:14:22;12.43;;;3.50;;
68921;SDS011;55959;51.244;5.724;2023-04-24T10:16:49;9.87;;;2.90;;
68921;SDS011;55959;51.244;5.724;2023-04-24T10:19:18;9.53;;;2.80;;
68921;SDS011;55959;51.244;5.724;2023-04-24T10:21:44;6.53;;;2.80;;
68921;SDS011;55959;51.244;5.724;2023-04-24T10:24:15;6.57;;;3.00;;
68921;SDS011;55959;51.244;5.724;2023-04-24T10:26:42;6.80;;;2.80;;
68921;SDS011;55959;51.244;5.724;2023-04-24T10:29:10;9.77;;;3.63;;
68921;SDS011;55959;51.244;5.724;2023-04-24T10:31:37;9.60;;;2.73;;
68921;SDS011;55959;51.244;5.724;2023-04-24T10:34:05;7.67;;;3.00;;
68921;SDS011;55959;51.244;5.724;2023-04-24T10:36:36;6.23;;;2.50;;
68921;SDS011;55959;51.244;5.724;2023-04-24T10:39:11;6.50;;;2.27;;
68921;SDS011;55959;51.244;5.724;2023-04-24T10:41:40;9.67;;;2.80;;
68921;SDS011;55959;51.244;5.724;2023-04-24T10:44:09;4.70;;;2.10;;
68921;SDS011;55959;51.244;5.724;2023-04-24T10:46:39;7.50;;;2.77;;
68921;SDS011;55959;51.244;5.724;2023-04-24T10:49:10;4.13;;;2.10;;
68921;SDS011;55959;51.244;5.724;2023-04-24T10:51:49;5.07;;;2.40;;
68921;SDS011;55959;51.244;5.724;2023-04-24T10:57:26;6.30;;;2.50;;
68921;SDS011;55959;51.244;5.724;2023-04-24T11:02:40;6.07;;;1.67;;
68921;SDS011;55959;51.244;5.724;2023-04-24T11:05:14;3.37;;;1.50;;
68921;SDS011;55959;51.244;5.724;2023-04-24T11:10:50;2.60;;;1.10;;
68921;SDS011;55959;51.244;5.724;2023-04-24T11:16:29;2.97;;;1.20;;
68921;SDS011;55959;51.244;5.724;2023-04-24T11:19:26;3.00;;;1.17;;
68921;SDS011;55959;51.244;5.724;2023-04-24T11:21:54;4.07;;;1.60;;
68921;SDS011;55959;51.244;5.724;2023-04-24T11:24:39;2.97;;;1.10;;
68921;SDS011;55959;51.244;5.724;2023-04-24T11:27:19;5.13;;;1.97;;
68921;SDS011;55959;51.244;5.724;2023-04-24T11:35:18;3.97;;;1.43;;
68921;SDS011;55959;51.244;5.724;2023-04-24T11:37:49;3.20;;;1.03;;
68921;SDS011;55959;51.244;5.724;2023-04-24T11:40:17;3.00;;;0.83;;
68921;SDS011;55959;51.244;5.724;2023-04-24T11:42:47;3.07;;;1.33;;
68921;SDS011;55959;51.244;5.724;2023-04-24T11:45:20;2.43;;;1.30;;
68921;SDS011;55959;51.244;5.724;2023-04-24T11:47:49;3.80;;;1.20;;
68921;SDS011;55959;51.244;5.724;2023-04-24T11:50:16;3.03;;;1.50;;
68921;SDS011;55959;51.244;5.724;2023-04-24T11:52:45;2.77;;;1.23;;
68921;SDS011;55959;51.244;5.724;2023-04-24T11:57:48;3.10;;;1.20;;
68921;SDS011;55959;51.244;5.724;2023-04-24T12:00:17;5.33;;;1.50;;
68921;SDS011;55959;51.244;5.724;2023-04-24T12:02:49;2.40;;;1.10;;
68921;SDS011;55959;51.244;5.724;2023-04-24T12:05:25;3.30;;;1.30;;
68921;SDS011;55959;51.244;5.724;2023-04-24T12:07:52;3.60;;;1.23;;
68921;SDS011;55959;51.244;5.724;2023-04-24T12:10:20;4.07;;;1.20;;
68921;SDS011;55959;51.244;5.724;2023-04-24T12:12:47;3.13;;;1.10;;
68921;SDS011;55959;51.244;5.724;2023-04-24T12:15:15;2.27;;;1.07;;
68921;SDS011;55959;51.244;5.724;2023-04-24T12:17:42;3.23;;;1.20;;
68921;SDS011;55959;51.244;5.724;2023-04-24T12:20:08;3.40;;;1.30;;
68921;SDS011;55959;51.244;5.724;2023-04-24T12:25:19;4.10;;;1.90;;
68921;SDS011;55959;51.244;5.724;2023-04-24T12:27:52;5.00;;;1.70;;
68921;SDS011;55959;51.244;5.724;2023-04-24T12:30:20;3.40;;;1.53;;
68921;SDS011;55959;51.244;5.724;2023-04-24T12:32:50;2.47;;;1.47;;
68921;SDS011;55959;51.244;5.724;2023-04-24T12:35:20;3.43;;;1.47;;
68921;SDS011;55959;51.244;5.724;2023-04-24T12:37:48;1.73;;;1.17;;
68921;SDS011;55959;51.244;5.724;2023-04-24T12:40:16;5.00;;;1.53;;
68921;SDS011;55959;51.244;5.724;2023-04-24T12:42:46;3.00;;;1.20;;
68921;SDS011;55959;51.244;5.724;2023-04-24T12:45:14;2.47;;;1.33;;
68921;SDS011;55959;51.244;5.724;2023-04-24T12:47:42;2.17;;;1.20;;
68921;SDS011;55959;51.244;5.724;2023-04-24T12:50:11;3.20;;;1.10;;
68921;SDS011;55959;51.244;5.724;2023-04-24T12:52:38;2.00;;;1.10;;
68921;SDS011;55959;51.244;5.724;2023-04-24T12:55:05;2.87;;;1.17;;
68921;SDS011;55959;51.244;5.724;2023-04-24T12:57:36;1.50;;;0.90;;
68921;SDS011;55959;51.244;5.724;2023-04-24T13:00:04;2.60;;;1.10;;
68921;SDS011;55959;51.244;5.724;2023-04-24T13:02:32;2.93;;;1.30;;
68921;SDS011;55959;51.244;5.724;2023-04-24T13:04:58;2.67;;;1.17;;
68921;SDS011;55959;51.244;5.724;2023-04-24T13:07:25;4.90;;;1.20;;
68921;SDS011;55959;51.244;5.724;2023-04-24T13:09:52;2.63;;;1.23;;
68921;SDS011;55959;51.244;5.724;2023-04-24T13:12:19;3.80;;;1.50;;
68921;SDS011;55959;51.244;5.724;2023-04-24T13:14:45;2.53;;;1.30;;
68921;SDS011;55959;51.244;5.724;2023-04-24T13:17:12;3.53;;;1.20;;
68921;SDS011;55959;51.244;5.724;2023-04-24T13:19:39;4.13;;;2.20;;
68921;SDS011;55959;51.244;5.724;2023-04-24T13:22:06;4.33;;;1.53;;
68921;SDS011;55959;51.244;5.724;2023-04-24T13:24:36;3.53;;;1.80;;
68921;SDS011;55959;51.244;5.724;2023-04-24T13:27:02;3.67;;;1.60;;
68921;SDS011;55959;51.244;5.724;2023-04-24T13:29:28;3.40;;;1.33;;
68921;SDS011;55959;51.244;5.724;2023-04-24T13:31:54;3.57;;;1.60;;
68921;SDS011;55959;51.244;5.724;2023-04-24T13:34:21;2.43;;;1.40;;
68921;SDS011;55959;51.244;5.724;2023-04-24T13:36:51;3.77;;;1.70;;
68921;SDS011;55959;51.244;5.724;2023-04-24T13:39:20;5.70;;;1.83;;
68921;SDS011;55959;51.244;5.724;2023-04-24T13:41:46;1.87;;;1.27;;
68921;SDS011;55959;51.244;5.724;2023-04-24T13:44:13;3.67;;;1.60;;
68921;SDS011;55959;51.244;5.724;2023-04-24T13:46:40;3.50;;;1.47;;
68921;SDS011;55959;51.244;5.724;2023-04-24T13:49:06;2.67;;;1.23;;
68921;SDS011;55959;51.244;5.724;2023-04-24T13:51:33;3.13;;;1.30;;
68921;SDS011;55959;51.244;5.724;2023-04-24T13:53:58;3.47;;;1.33;;
68921;SDS011;55959;51.244;5.724;2023-04-24T13:56:24;6.47;;;1.33;;
68921;SDS011;55959;51.244;5.724;2023-04-24T13:58:51;2.90;;;1.20;;
68921;SDS011;55959;51.244;5.724;2023-04-24T14:01:19;3.43;;;1.20;;
68921;SDS011;55959;51.244;5.724;2023-04-24T14:03:46;2.60;;;1.30;;
68921;SDS011;55959;51.244;5.724;2023-04-24T14:06:11;2.50;;;1.10;;
68921;SDS011;55959;51.244;5.724;2023-04-24T14:08:38;3.60;;;1.43;;
68921;SDS011;55959;51.244;5.724;2023-04-24T14:11:04;1.40;;;1.10;;
68921;SDS011;55959;51.244;5.724;2023-04-24T14:13:30;3.03;;;1.20;;
68921;SDS011;55959;51.244;5.724;2023-04-24T14:15:56;2.60;;;1.13;;
68921;SDS011;55959;51.244;5.724;2023-04-24T14:18:22;3.40;;;1.20;;
68921;SDS011;55959;51.244;5.724;2023-04-24T14:20:48;3.37;;;1.20;;
68921;SDS011;55959;51.244;5.724;2023-04-24T14:23:15;1.90;;;0.93;;
68921;SDS011;55959;51.244;5.724;2023-04-24T14:25:41;3.17;;;1.30;;
68921;SDS011;55959;51.244;5.724;2023-04-24T14:28:06;2.23;;;1.43;;
68921;SDS011;55959;51.244;5.724;2023-04-24T14:30:32;2.80;;;1.40;;
68921;SDS011;55959;51.244;5.724;2023-04-24T14:32:58;3.90;;;1.57;;
68921;SDS011;55959;51.244;5.724;2023-04-24T14:35:24;3.43;;;1.80;;
68921;SDS011;55959;51.244;5.724;2023-04-24T14:37:50;1.87;;;1.20;;
68921;SDS011;55959;51.244;5.724;2023-04-24T14:40:16;3.43;;;2.13;;
68921;SDS011;55959;51.244;5.724;2023-04-24T14:42:42;2.40;;;1.43;;
68921;SDS011;55959;51.244;5.724;2023-04-24T14:45:08;1.73;;;1.37;;
68921;SDS011;55959;51.244;5.724;2023-04-24T14:47:34;3.83;;;1.47;;
68921;SDS011;55959;51.244;5.724;2023-04-24T14:50:01;4.70;;;1.90;;
68921;SDS011;55959;51.244;5.724;2023-04-24T14:52:27;4.40;;;1.80;;
68921;SDS011;55959;51.244;5.724;2023-04-24T14:54:53;2.70;;;1.77;;
68921;SDS011;55959;51.244;5.724;2023-04-24T14:57:19;1.67;;;1.30;;
68921;SDS011;55959;51.244;5.724;2023-04-24T14:59:45;3.13;;;1.70;;
68921;SDS011;55959;51.244;5.724;2023-04-24T15:02:11;2.27;;;1.23;;
68921;SDS011;55959;51.244;5.724;2023-04-24T15:04:36;4.00;;;1.50;;
68921;SDS011;55959;51.244;5.724;2023-04-24T15:07:02;3.03;;;1.33;;